sensor_id;sensor_type;location;lat;lon;timestamp;pressure;altitude;pressure_sealevel;temperature;humidity
12759;BME280;20944;47.048;15.390;2023-04-04T00:00:37;97921.28;;;2.35;41.81
12759;BME280;20944;47.048;15.390;2023-04-04T00:03:06;97916.84;;;2.20;41.82
12759;BME280;20944;47.048;15.390;2023-04-04T00:05:36;97840.31;;;1.51;42.10
12759;BME280;20944;47.048;15.390;2023-04-04T00:08:04;97918.53;;;2.20;42.48
12759;BME280;20944;47.048;15.390;2023-04-04T00:10:33;97928.19;;;2.33;41.93
12759;BME280;20944;47.048;15.390;2023-04-04T00:13:01;97917.63;;;2.13;42.64
12759;BME280;20944;47.048;15.390;2023-04-04T00:15:31;97870.91;;;1.90;42.69
12759;BME280;20944;47.048;15.390;2023-04-04T00:18:00;97934.97;;;2.26;42.56
12759;BME280;20944;47.048;15.390;2023-04-04T00:20:29;97931.47;;;2.20;42.71
12759;BME280;20944;47.048;15.390;2023-04-04T00:22:59;97835.25;;;1.58;42.85
12759;BME280;20944;47.048;15.390;2023-04-04T00:25:27;97908.97;;;2.09;43.13
12759;BME280;20944;47.048;15.390;2023-04-04T00:27:55;97933.19;;;2.17;43.19
12759;BME280;20944;47.048;15.390;2023-04-04T00:30:27;97934.03;;;2.18;43.45
12759;BME280;20944;47.048;15.390;2023-04-04T00:32:55;97930.53;;;2.13;43.64
12759;BME280;20944;47.048;15.390;2023-04-04T00:35:24;97929.69;;;2.12;43.26
12759;BME280;20944;47.048;15.390;2023-04-04T00:37:52;97929.75;;;2.19;43.36
12759;BME280;20944;47.048;15.390;2023-04-04T00:40:22;97919.31;;;2.09;43.55
12759;BME280;20944;47.048;15.390;2023-04-04T00:42:50;97871.63;;;1.77;43.46
12759;BME280;20944;47.048;15.390;2023-04-04T00:45:19;97927.94;;;2.08;43.37
12759;BME280;20944;47.048;15.390;2023-04-04T00:47:48;97930.50;;;2.08;43.34
12759;BME280;20944;47.048;15.390;2023-04-04T00:50:17;97912.28;;;1.96;43.44
12759;BME280;20944;47.048;15.390;2023-04-04T00:52:45;97936.44;;;2.00;44.00
12759;BME280;20944;47.048;15.390;2023-04-04T00:55:14;97925.28;;;2.02;43.78
12759;BME280;20944;47.048;15.390;2023-04-04T00:57:43;97927.00;;;2.03;44.09
12759;BME280;20944;47.048;15.390;2023-04-04T01:00:13;97838.59;;;1.48;43.76
12759;BME280;20944;47.048;15.390;2023-04-04T01:02:42;97931.31;;;2.01;44.13
12759;BME280;20944;47.048;15.390;2023-04-04T01:05:10;97875.94;;;1.78;44.07
12759;BME280;20944;47.048;15.390;2023-04-04T01:07:39;97923.50;;;1.98;44.30
12759;BME280;20944;47.048;15.390;2023-04-04T01:10:09;97921.78;;;2.00;43.87
12759;BME280;20944;47.048;15.390;2023-04-04T01:12:38;97922.66;;;1.99;43.65
12759;BME280;20944;47.048;15.390;2023-04-04T01:15:09;97925.22;;;1.99;44.25
12759;BME280;20944;47.048;15.390;2023-04-04T01:17:38;97900.97;;;1.86;43.77
12759;BME280;20944;47.048;15.390;2023-04-04T01:20:10;97901.81;;;1.82;44.17
12759;BME280;20944;47.048;15.390;2023-04-04T01:22:41;97931.25;;;1.97;44.05
12759;BME280;20944;47.048;15.390;2023-04-04T01:25:10;97915.69;;;1.94;44.01
12759;BME280;20944;47.048;15.390;2023-04-04T01:27:40;97900.03;;;1.78;43.89
12759;BME280;20944;47.048;15.390;2023-04-04T01:30:09;97901.72;;;1.75;44.29
12759;BME280;20944;47.048;15.390;2023-04-04T01:32:42;97884.47;;;1.72;43.76
12759;BME280;20944;47.048;15.390;2023-04-04T01:35:19;97914.81;;;1.92;43.76
12759;BME280;20944;47.048;15.390;2023-04-04T01:37:54;97910.47;;;1.87;44.10
12759;BME280;20944;47.048;15.390;2023-04-04T01:40:27;97912.19;;;1.88;43.80
12759;BME280;20944;47.048;15.390;2023-04-04T01:43:02;97905.34;;;1.89;43.88
12759;BME280;20944;47.048;15.390;2023-04-04T01:45:30;97907.84;;;1.83;43.68
12759;BME280;20944;47.048;15.390;2023-04-04T01:47:58;97909.53;;;1.81;44.35
12759;BME280;20944;47.048;15.390;2023-04-04T01:50:27;97800.28;;;1.12;44.53
12759;BME280;20944;47.048;15.390;2023-04-04T01:52:55;97904.41;;;1.85;44.20
12759;BME280;20944;47.048;15.390;2023-04-04T01:55:23;97897.53;;;1.86;43.86
12759;BME280;20944;47.048;15.390;2023-04-04T01:57:51;97843.66;;;1.42;44.06
12759;BME280;20944;47.048;15.390;2023-04-04T02:00:21;97902.56;;;1.72;44.05
12759;BME280;20944;47.048;15.390;2023-04-04T02:02:49;97896.59;;;1.76;44.24
12759;BME280;20944;47.048;15.390;2023-04-04T02:05:18;97891.28;;;1.67;44.10
12759;BME280;20944;47.048;15.390;2023-04-04T02:07:47;97893.09;;;1.74;44.37
12759;BME280;20944;47.048;15.390;2023-04-04T02:10:16;97890.44;;;1.70;44.25
12759;BME280;20944;47.048;15.390;2023-04-04T02:12:44;97876.56;;;1.58;44.23
12759;BME280;20944;47.048;15.390;2023-04-04T02:15:13;97762.06;;;0.79;44.65
12759;BME280;20944;47.048;15.390;2023-04-04T02:17:46;97888.66;;;1.62;44.35
12759;BME280;20944;47.048;15.390;2023-04-04T02:20:14;97889.50;;;1.63;44.36
12759;BME280;20944;47.048;15.390;2023-04-04T02:22:51;97882.69;;;1.67;44.05
12759;BME280;20944;47.048;15.390;2023-04-04T02:25:20;97886.91;;;1.61;44.26
12759;BME280;20944;47.048;15.390;2023-04-04T02:27:49;97886.13;;;1.64;44.02
12759;BME280;20944;47.048;15.390;2023-04-04T02:30:17;97880.09;;;1.65;43.64
12759;BME280;20944;47.048;15.390;2023-04-04T02:32:47;97822.00;;;1.29;44.10
12759;BME280;20944;47.048;15.390;2023-04-04T02:35:16;97882.56;;;1.56;44.08
12759;BME280;20944;47.048;15.390;2023-04-04T02:37:44;97880.91;;;1.62;44.00
12759;BME280;20944;47.048;15.390;2023-04-04T02:40:13;97881.75;;;1.61;44.00
12759;BME280;20944;47.048;15.390;2023-04-04T02:42:42;97817.56;;;1.18;43.66
12759;BME280;20944;47.048;15.390;2023-04-04T02:45:11;97874.84;;;1.59;44.00
12759;BME280;20944;47.048;15.390;2023-04-04T02:47:40;97828.13;;;1.36;43.16
12759;BME280;20944;47.048;15.390;2023-04-04T02:50:10;97869.75;;;1.65;43.01
12759;BME280;20944;47.048;15.390;2023-04-04T02:52:39;97826.41;;;1.37;43.78
12759;BME280;20944;47.048;15.390;2023-04-04T02:55:08;97846.38;;;1.51;43.03
12759;BME280;20944;47.048;15.390;2023-04-04T02:57:36;97833.41;;;1.47;43.14
12759;BME280;20944;47.048;15.390;2023-04-04T03:00:05;97854.13;;;1.53;43.24
12759;BME280;20944;47.048;15.390;2023-04-04T03:02:34;97845.59;;;1.58;43.54
12759;BME280;20944;47.048;15.390;2023-04-04T03:05:02;97847.25;;;1.52;42.84
12759;BME280;20944;47.048;15.390;2023-04-04T03:07:32;97836.91;;;1.52;43.32
12759;BME280;20944;47.048;15.390;2023-04-04T03:10:00;97835.19;;;1.54;42.86
12759;BME280;20944;47.048;15.390;2023-04-04T03:12:28;97806.59;;;1.37;42.92
12759;BME280;20944;47.048;15.390;2023-04-04T03:14:57;97839.50;;;1.52;42.87
12759;BME280;20944;47.048;15.390;2023-04-04T03:17:25;97820.41;;;1.39;42.82
12759;BME280;20944;47.048;15.390;2023-04-04T03:19:53;97759.84;;;1.10;42.76
12759;BME280;20944;47.048;15.390;2023-04-04T03:22:21;97822.22;;;1.49;42.41
12759;BME280;20944;47.048;15.390;2023-04-04T03:24:51;97807.44;;;1.34;42.88
12759;BME280;20944;47.048;15.390;2023-04-04T03:27:19;97805.66;;;1.27;42.69
12759;BME280;20944;47.048;15.390;2023-04-04T03:29:47;97777.84;;;1.02;42.83
12759;BME280;20944;47.048;15.390;2023-04-04T03:32:16;97831.53;;;1.35;42.74
12759;BME280;20944;47.048;15.390;2023-04-04T03:34:45;97825.41;;;1.25;43.33
12759;BME280;20944;47.048;15.390;2023-04-04T03:37:13;97820.28;;;1.30;43.31
12759;BME280;20944;47.048;15.390;2023-04-04T03:39:41;97760.63;;;1.01;42.37
12759;BME280;20944;47.048;15.390;2023-04-04T03:42:11;97847.91;;;1.37;42.66
12759;BME280;20944;47.048;15.390;2023-04-04T03:44:39;97813.34;;;1.24;42.94
12759;BME280;20944;47.048;15.390;2023-04-04T03:47:07;97794.34;;;1.19;42.66
12759;BME280;20944;47.048;15.390;2023-04-04T03:49:36;97820.34;;;1.33;42.03
12759;BME280;20944;47.048;15.390;2023-04-04T03:52:04;97717.38;;;0.80;42.12
12759;BME280;20944;47.048;15.390;2023-04-04T03:54:32;97743.31;;;0.92;42.00
12759;BME280;20944;47.048;15.390;2023-04-04T03:57:00;97805.66;;;1.29;42.06
12759;BME280;20944;47.048;15.390;2023-04-04T03:59:30;97807.41;;;1.30;41.97
12759;BME280;20944;47.048;15.390;2023-04-04T04:01:59;97808.19;;;1.23;42.13
12759;BME280;20944;47.048;15.390;2023-04-04T04:04:27;97765.75;;;0.99;41.87
12759;BME280;20944;47.048;15.390;2023-04-04T04:06:55;97813.31;;;1.20;42.03
12759;BME280;20944;47.048;15.390;2023-04-04T04:09:24;97803.88;;;1.22;41.42
12759;BME280;20944;47.048;15.390;2023-04-04T04:11:52;97788.22;;;1.08;42.49
12759;BME280;20944;47.048;15.390;2023-04-04T04:14:20;97809.81;;;1.18;41.91
12759;BME280;20944;47.048;15.390;2023-04-04T04:16:50;97812.25;;;1.05;42.93
12759;BME280;20944;47.048;15.390;2023-04-04T04:19:18;97808.91;;;1.13;42.91
12759;BME280;20944;47.048;15.390;2023-04-04T04:21:47;97688.63;;;0.49;42.23
12759;BME280;20944;47.048;15.390;2023-04-04T04:24:15;97783.00;;;1.05;42.12
12759;BME280;20944;47.048;15.390;2023-04-04T04:26:43;97810.75;;;1.24;42.49
12759;BME280;20944;47.048;15.390;2023-04-04T04:29:11;97809.03;;;1.23;42.27
12759;BME280;20944;47.048;15.390;2023-04-04T04:31:39;97811.69;;;1.28;42.40
12759;BME280;20944;47.048;15.390;2023-04-04T04:34:09;97807.31;;;1.24;42.09
12759;BME280;20944;47.048;15.390;2023-04-04T04:36:37;97795.06;;;1.06;42.76
12759;BME280;20944;47.048;15.390;2023-04-04T04:39:05;97818.44;;;1.18;43.18
12759;BME280;20944;47.048;15.390;2023-04-04T04:41:33;97816.72;;;1.17;42.43
12759;BME280;20944;47.048;15.390;2023-04-04T04:44:02;97816.78;;;1.25;42.68
12759;BME280;20944;47.048;15.390;2023-04-04T04:46:30;97807.25;;;1.19;42.53
12759;BME280;20944;47.048;15.390;2023-04-04T04:48:58;97817.56;;;1.18;42.45
12759;BME280;20944;47.048;15.390;2023-04-04T04:51:28;97819.34;;;1.20;43.09
12759;BME280;20944;47.048;15.390;2023-04-04T04:53:56;97801.16;;;1.11;43.21
12759;BME280;20944;47.048;15.390;2023-04-04T04:56:25;97831.47;;;1.27;42.86
12759;BME280;20944;47.048;15.390;2023-04-04T04:58:53;97749.19;;;0.80;42.76
12759;BME280;20944;47.048;15.390;2023-04-04T05:01:21;97831.59;;;1.40;42.71
12759;BME280;20944;47.048;15.390;2023-04-04T05:03:49;97796.91;;;1.18;42.45
12759;BME280;20944;47.048;15.390;2023-04-04T05:06:19;97842.81;;;1.43;42.32
12759;BME280;20944;47.048;15.390;2023-04-04T05:08:48;97902.25;;;1.46;42.63
12759;BME280;20944;47.048;15.390;2023-04-04T05:11:17;97836.91;;;1.53;42.15
12759;BME280;20944;47.048;15.390;2023-04-04T05:13:45;97816.22;;;1.49;42.45
12759;BME280;20944;47.048;15.390;2023-04-04T05:16:13;97837.00;;;1.62;41.58
12759;BME280;20944;47.048;15.390;2023-04-04T05:18:41;97843.97;;;1.68;41.34
12759;BME280;20944;47.048;15.390;2023-04-04T05:21:09;97819.78;;;1.60;41.44
12759;BME280;20944;47.048;15.390;2023-04-04T05:23:37;97831.91;;;1.67;41.43
12759;BME280;20944;47.048;15.390;2023-04-04T05:26:07;97852.78;;;1.88;41.00
12759;BME280;20944;47.048;15.390;2023-04-04T05:28:36;97845.13;;;1.98;40.84
12759;BME280;20944;47.048;15.390;2023-04-04T05:31:06;97841.72;;;2.02;40.24
12759;BME280;20944;47.048;15.390;2023-04-04T05:33:34;97834.78;;;1.96;39.83
12759;BME280;20944;47.048;15.390;2023-04-04T05:36:02;97854.72;;;2.12;39.83
12759;BME280;20944;47.048;15.390;2023-04-04T05:38:31;97851.31;;;2.15;39.24
12759;BME280;20944;47.048;15.390;2023-04-04T05:40:59;97844.44;;;2.17;39.08
12759;BME280;20944;47.048;15.390;2023-04-04T05:43:28;97862.53;;;2.15;38.82
12759;BME280;20944;47.048;15.390;2023-04-04T05:45:57;97847.94;;;2.25;38.90
12759;BME280;20944;47.048;15.390;2023-04-04T05:48:25;97814.19;;;2.05;38.73
12759;BME280;20944;47.048;15.390;2023-04-04T05:50:53;97856.66;;;2.38;38.62
12759;BME280;20944;47.048;15.390;2023-04-04T05:53:21;97848.03;;;2.33;38.51
12759;BME280;20944;47.048;15.390;2023-04-04T05:55:50;97858.53;;;2.56;38.54
12759;BME280;20944;47.048;15.390;2023-04-04T05:58:19;97862.06;;;2.65;38.11
12759;BME280;20944;47.048;15.390;2023-04-04T06:00:49;97864.66;;;2.67;37.93
12759;BME280;20944;47.048;15.390;2023-04-04T06:03:17;97861.78;;;2.30;38.15
12759;BME280;20944;47.048;15.390;2023-04-04T06:05:49;97851.75;;;2.72;37.61
12759;BME280;20944;47.048;15.390;2023-04-04T06:08:19;97862.06;;;2.70;37.54
12759;BME280;20944;47.048;15.390;2023-04-04T06:10:47;97866.34;;;2.62;37.71
12759;BME280;20944;47.048;15.390;2023-04-04T06:13:15;97856.84;;;2.61;37.68
12759;BME280;20944;47.048;15.390;2023-04-04T06:15:43;97855.03;;;2.49;37.64
12759;BME280;20944;47.048;15.390;2023-04-04T06:18:13;97861.06;;;2.48;37.93
12759;BME280;20944;47.048;15.390;2023-04-04T06:20:43;97857.66;;;2.55;37.54
12759;BME280;20944;47.048;15.390;2023-04-04T06:23:11;97855.16;;;2.64;37.29
12759;BME280;20944;47.048;15.390;2023-04-04T06:25:39;97856.16;;;2.85;37.60
12759;BME280;20944;47.048;15.390;2023-04-04T06:28:07;97852.81;;;3.07;37.17
12759;BME280;20944;47.048;15.390;2023-04-04T06:30:36;97852.03;;;3.17;37.12
12759;BME280;20944;47.048;15.390;2023-04-04T06:33:06;97846.00;;;3.21;36.71
12759;BME280;20944;47.048;15.390;2023-04-04T06:35:35;97855.47;;;3.19;36.82
12759;BME280;20944;47.048;15.390;2023-04-04T06:38:03;97788.84;;;2.80;36.90
12759;BME280;20944;47.048;15.390;2023-04-04T06:40:32;97855.44;;;3.12;36.39
12759;BME280;20944;47.048;15.390;2023-04-04T06:43:00;97745.53;;;2.41;36.42
12759;BME280;20944;47.048;15.390;2023-04-04T06:45:29;97839.84;;;3.01;36.75
12759;BME280;20944;47.048;15.390;2023-04-04T06:47:59;97859.78;;;3.14;36.97
12759;BME280;20944;47.048;15.390;2023-04-04T06:50:29;97852.03;;;3.20;36.13
12759;BME280;20944;47.048;15.390;2023-04-04T06:53:00;97613.34;;;1.77;36.43
12759;BME280;20944;47.048;15.390;2023-04-04T06:55:29;97842.53;;;3.16;36.58
12759;BME280;20944;47.048;15.390;2023-04-04T06:57:57;97857.19;;;3.19;36.29
12759;BME280;20944;47.048;15.390;2023-04-04T07:00:26;97820.84;;;2.93;36.20
12759;BME280;20944;47.048;15.390;2023-04-04T07:02:56;97852.03;;;3.19;36.38
12759;BME280;20944;47.048;15.390;2023-04-04T07:05:26;97871.97;;;3.37;36.29
12759;BME280;20944;47.048;15.390;2023-04-04T07:07:54;97840.03;;;3.39;36.87
12759;BME280;20944;47.048;15.390;2023-04-04T07:10:24;97797.66;;;3.19;35.83
12759;BME280;20944;47.048;15.390;2023-04-04T07:12:53;97853.09;;;3.65;36.80
12759;BME280;20944;47.048;15.390;2023-04-04T07:15:21;97866.91;;;3.76;35.66
12759;BME280;20944;47.048;15.390;2023-04-04T07:17:49;97856.53;;;3.70;35.62
12759;BME280;20944;47.048;15.390;2023-04-04T07:20:18;97870.41;;;3.86;35.95
12759;BME280;20944;47.048;15.390;2023-04-04T07:22:47;97662.03;;;2.65;35.14
12759;BME280;20944;47.048;15.390;2023-04-04T07:25:16;97841.06;;;3.99;35.08
12759;BME280;20944;47.048;15.390;2023-04-04T07:27:45;97860.97;;;4.16;35.15
12759;BME280;20944;47.048;15.390;2023-04-04T07:30:14;97854.06;;;4.22;35.49
12759;BME280;20944;47.048;15.390;2023-04-04T07:32:42;97787.50;;;3.85;35.26
12759;BME280;20944;47.048;15.390;2023-04-04T07:35:11;97850.63;;;4.28;34.89
12759;BME280;20944;47.048;15.390;2023-04-04T07:37:40;97700.19;;;3.51;35.54
12759;BME280;20944;47.048;15.390;2023-04-04T07:40:09;97809.97;;;4.21;33.96
12759;BME280;20944;47.048;15.390;2023-04-04T07:42:42;97829.00;;;4.29;35.37
12759;BME280;20944;47.048;15.390;2023-04-04T07:45:12;97849.75;;;4.41;35.00
12759;BME280;20944;47.048;15.390;2023-04-04T07:47:42;97868.75;;;4.20;35.37
12759;BME280;20944;47.048;15.390;2023-04-04T07:50:10;97834.19;;;4.30;35.09
12759;BME280;20944;47.048;15.390;2023-04-04T07:52:39;97841.09;;;4.48;34.59
12759;BME280;20944;47.048;15.390;2023-04-04T07:55:08;97854.06;;;4.38;35.11
12759;BME280;20944;47.048;15.390;2023-04-04T07:57:37;97730.47;;;3.72;34.39
12759;BME280;20944;47.048;15.390;2023-04-04T08:00:07;97853.19;;;4.63;35.10
12759;BME280;20944;47.048;15.390;2023-04-04T08:02:38;97846.25;;;4.80;34.14
12759;BME280;20944;47.048;15.390;2023-04-04T08:05:07;97830.72;;;4.38;34.31
12759;BME280;20944;47.048;15.390;2023-04-04T08:07:36;97833.31;;;4.42;34.40
12759;BME280;20944;47.048;15.390;2023-04-04T08:10:05;97844.53;;;4.70;35.20
12759;BME280;20944;47.048;15.390;2023-04-04T08:12:33;97836.72;;;4.93;35.29
12759;BME280;20944;47.048;15.390;2023-04-04T08:15:01;97836.66;;;5.18;34.12
12759;BME280;20944;47.048;15.390;2023-04-04T08:17:30;97822.81;;;5.11;33.71
12759;BME280;20944;47.048;15.390;2023-04-04T08:19:59;97808.16;;;4.93;33.83
12759;BME280;20944;47.048;15.390;2023-04-04T08:22:28;97833.22;;;5.02;34.35
12759;BME280;20944;47.048;15.390;2023-04-04T08:24:56;97844.44;;;5.24;33.27
12759;BME280;20944;47.048;15.390;2023-04-04T08:27:24;97819.34;;;5.17;33.50
12759;BME280;20944;47.048;15.390;2023-04-04T08:29:53;97829.63;;;5.43;33.86
12759;BME280;20944;47.048;15.390;2023-04-04T08:32:21;97829.56;;;5.58;33.44
12759;BME280;20944;47.048;15.390;2023-04-04T08:34:49;97812.22;;;5.58;32.66
12759;BME280;20944;47.048;15.390;2023-04-04T08:37:19;97820.00;;;5.66;33.80
12759;BME280;20944;47.048;15.390;2023-04-04T08:39:47;97827.00;;;5.49;32.02
12759;BME280;20944;47.048;15.390;2023-04-04T08:42:17;97695.72;;;4.71;32.78
12759;BME280;20944;47.048;15.390;2023-04-04T08:44:48;97812.19;;;5.64;32.84
12759;BME280;20944;47.048;15.390;2023-04-04T08:47:18;97794.09;;;5.45;32.49
12759;BME280;20944;47.048;15.390;2023-04-04T08:49:48;97808.72;;;5.64;32.71
12759;BME280;20944;47.048;15.390;2023-04-04T08:52:21;97805.22;;;5.74;32.21
12759;BME280;20944;47.048;15.390;2023-04-04T08:54:50;97806.03;;;5.78;32.21
12759;BME280;20944;47.048;15.390;2023-04-04T08:57:18;97807.72;;;5.94;32.33
12759;BME280;20944;47.048;15.390;2023-04-04T08:59:46;97800.78;;;5.98;30.96
12759;BME280;20944;47.048;15.390;2023-04-04T09:02:16;97808.69;;;5.73;30.58
12759;BME280;20944;47.048;15.390;2023-04-04T09:05:04;97803.47;;;5.76;32.03
12759;BME280;20944;47.048;15.390;2023-04-04T09:07:35;97787.09;;;5.60;31.49
12759;BME280;20944;47.048;15.390;2023-04-04T09:10:08;97807.84;;;5.69;31.35
12759;BME280;20944;47.048;15.390;2023-04-04T09:12:41;97763.72;;;5.57;31.80
12759;BME280;20944;47.048;15.390;2023-04-04T09:15:11;97798.16;;;5.99;31.64
12759;BME280;20944;47.048;15.390;2023-04-04T09:17:40;97794.56;;;6.18;31.74
12759;BME280;20944;47.048;15.390;2023-04-04T09:22:55;97781.56;;;6.14;30.20
12759;BME280;20944;47.048;15.390;2023-04-04T09:25:23;97783.34;;;6.07;30.89
12759;BME280;20944;47.048;15.390;2023-04-04T09:27:51;97785.88;;;6.15;30.52
12759;BME280;20944;47.048;15.390;2023-04-04T09:30:19;97787.56;;;6.22;30.48
12759;BME280;20944;47.048;15.390;2023-04-04T09:32:47;97782.34;;;6.22;30.14
12759;BME280;20944;47.048;15.390;2023-04-04T09:35:16;97778.81;;;6.32;29.40
12759;BME280;20944;47.048;15.390;2023-04-04T09:37:43;97776.31;;;6.23;29.31
12759;BME280;20944;47.048;15.390;2023-04-04T09:40:13;97764.34;;;6.01;30.90
12759;BME280;20944;47.048;15.390;2023-04-04T09:42:42;97772.81;;;6.26;31.00
12759;BME280;20944;47.048;15.390;2023-04-04T09:45:10;97767.56;;;6.30;30.69
12759;BME280;20944;47.048;15.390;2023-04-04T09:47:55;97760.53;;;6.38;30.84
12759;BME280;20944;47.048;15.390;2023-04-04T09:50:24;97769.13;;;6.46;31.03
12759;BME280;20944;47.048;15.390;2023-04-04T09:52:55;97770.97;;;6.38;30.56
12759;BME280;20944;47.048;15.390;2023-04-04T09:55:31;97767.34;;;6.55;31.42
12759;BME280;20944;47.048;15.390;2023-04-04T09:58:01;97748.94;;;6.71;30.78
12759;BME280;20944;47.048;15.390;2023-04-04T10:00:39;97753.16;;;6.83;30.32
12759;BME280;20944;47.048;15.390;2023-04-04T10:03:08;97752.25;;;6.84;30.82
12759;BME280;20944;47.048;15.390;2023-04-04T10:05:37;97758.47;;;6.74;30.09
12759;BME280;20944;47.048;15.390;2023-04-04T10:08:12;97751.28;;;6.94;30.88
12759;BME280;20944;47.048;15.390;2023-04-04T10:10:45;97752.22;;;6.92;31.24
12759;BME280;20944;47.048;15.390;2023-04-04T10:13:32;97739.28;;;6.81;29.53
12759;BME280;20944;47.048;15.390;2023-04-04T10:16:02;97742.78;;;6.80;29.84
12759;BME280;20944;47.048;15.390;2023-04-04T10:18:30;97747.28;;;6.64;30.84
12759;BME280;20944;47.048;15.390;2023-04-04T10:20:59;97737.84;;;6.56;29.63
12759;BME280;20944;47.048;15.390;2023-04-04T10:23:41;97739.63;;;6.49;31.00
12759;BME280;20944;47.048;15.390;2023-04-04T10:26:11;97738.72;;;6.55;29.39
12759;BME280;20944;47.048;15.390;2023-04-04T10:28:39;97736.13;;;6.55;29.30
12759;BME280;20944;47.048;15.390;2023-04-04T10:31:10;97741.19;;;6.67;29.31
12759;BME280;20944;47.048;15.390;2023-04-04T10:33:43;97737.66;;;6.74;28.88
12759;BME280;20944;47.048;15.390;2023-04-04T10:36:13;97721.94;;;6.79;30.43
12759;BME280;20944;47.048;15.390;2023-04-04T10:38:44;97717.44;;;6.94;29.12
12759;BME280;20944;47.048;15.390;2023-04-04T10:41:16;97723.47;;;6.99;29.48
12759;BME280;20944;47.048;15.390;2023-04-04T10:43:46;97713.84;;;7.05;30.01
12759;BME280;20944;47.048;15.390;2023-04-04T10:46:14;97708.50;;;7.14;29.47
12759;BME280;20944;47.048;15.390;2023-04-04T10:48:45;97726.72;;;7.17;28.82
12759;BME280;20944;47.048;15.390;2023-04-04T10:51:14;97715.69;;;6.95;28.17
12759;BME280;20944;47.048;15.390;2023-04-04T10:53:42;97712.97;;;7.06;28.71
12759;BME280;20944;47.048;15.390;2023-04-04T10:56:10;97698.19;;;7.06;28.66
12759;BME280;20944;47.048;15.390;2023-04-04T10:58:39;97700.59;;;7.21;28.61
12759;BME280;20944;47.048;15.390;2023-04-04T11:01:08;97687.56;;;7.23;28.34
12759;BME280;20944;47.048;15.390;2023-04-04T11:09:49;97701.44;;;7.22;28.56
12759;BME280;20944;47.048;15.390;2023-04-04T11:12:29;97696.09;;;7.33;28.09
12759;BME280;20944;47.048;15.390;2023-04-04T11:15:08;97690.84;;;7.36;28.21
12759;BME280;20944;47.048;15.390;2023-04-04T11:17:57;97683.81;;;7.41;27.78
12759;BME280;20944;47.048;15.390;2023-04-04T11:20:30;97687.50;;;7.26;28.44
12759;BME280;20944;47.048;15.390;2023-04-04T11:23:07;97671.78;;;7.32;27.53
12759;BME280;20944;47.048;15.390;2023-04-04T11:25:40;97633.25;;;6.91;27.28
12759;BME280;20944;47.048;15.390;2023-04-04T11:28:12;97665.81;;;7.24;27.95
12759;BME280;20944;47.048;15.390;2023-04-04T11:30:43;97675.22;;;7.34;28.12
12759;BME280;20944;47.048;15.390;2023-04-04T11:33:25;97662.91;;;7.44;28.06
12759;BME280;20944;47.048;15.390;2023-04-04T11:36:03;97637.97;;;7.26;27.01
12759;BME280;20944;47.048;15.390;2023-04-04T11:38:34;97660.94;;;7.60;26.84
12759;BME280;20944;47.048;15.390;2023-04-04T11:41:03;97652.81;;;7.79;27.63
12759;BME280;20944;47.048;15.390;2023-04-04T11:43:33;97638.00;;;7.81;27.35
12759;BME280;20944;47.048;15.390;2023-04-04T11:46:16;97645.84;;;7.80;25.94
12759;BME280;20944;47.048;15.390;2023-04-04T11:48:46;97647.47;;;7.85;26.36
12759;BME280;20944;47.048;15.390;2023-04-04T11:51:15;97637.97;;;7.83;26.52
12759;BME280;20944;47.048;15.390;2023-04-04T11:53:43;97642.22;;;7.89;26.88
12759;BME280;20944;47.048;15.390;2023-04-04T11:56:14;97664.03;;;7.83;25.76
12759;BME280;20944;47.048;15.390;2023-04-04T11:58:46;97641.84;;;7.57;25.85
12759;BME280;20944;47.048;15.390;2023-04-04T12:01:25;97636.50;;;7.65;26.35
12759;BME280;20944;47.048;15.390;2023-04-04T12:03:53;97609.22;;;7.86;26.88
12759;BME280;20944;47.048;15.390;2023-04-04T12:06:22;97523.94;;;7.40;25.36
12759;BME280;20944;47.048;15.390;2023-04-04T12:08:51;97610.53;;;8.08;25.70
12759;BME280;20944;47.048;15.390;2023-04-04T12:11:19;97618.34;;;8.10;25.06
12759;BME280;20944;47.048;15.390;2023-04-04T12:13:49;97623.22;;;8.28;25.11
12759;BME280;20944;47.048;15.390;2023-04-04T12:16:17;97621.03;;;8.53;25.91
12759;BME280;20944;47.048;15.390;2023-04-04T12:18:47;97621.09;;;8.50;24.84
12759;BME280;20944;47.048;15.390;2023-04-04T12:21:15;97615.44;;;8.72;25.02
12759;BME280;20944;47.048;15.390;2023-04-04T12:23:45;97621.47;;;8.75;24.47
12759;BME280;20944;47.048;15.390;2023-04-04T12:26:13;97610.34;;;8.65;24.54
12759;BME280;20944;47.048;15.390;2023-04-04T12:28:42;97604.47;;;8.96;25.85
12759;BME280;20944;47.048;15.390;2023-04-04T12:31:12;97621.56;;;9.12;25.04
12759;BME280;20944;47.048;15.390;2023-04-04T12:33:40;97599.41;;;9.27;24.66
12759;BME280;20944;47.048;15.390;2023-04-04T12:36:10;97606.91;;;9.42;24.29
12759;BME280;20944;47.048;15.390;2023-04-04T12:38:54;97591.75;;;9.55;25.00
12759;BME280;20944;47.048;15.390;2023-04-04T12:41:23;97585.66;;;9.56;24.25
12759;BME280;20944;47.048;15.390;2023-04-04T12:43:59;97446.41;;;8.77;23.65
12759;BME280;20944;47.048;15.390;2023-04-04T12:46:28;97587.69;;;9.81;23.35
12759;BME280;20944;47.048;15.390;2023-04-04T12:49:02;97539.03;;;9.36;23.35
12759;BME280;20944;47.048;15.390;2023-04-04T12:51:32;97591.31;;;9.73;23.99
12759;BME280;20944;47.048;15.390;2023-04-04T12:54:04;97603.44;;;9.78;24.19
12759;BME280;20944;47.048;15.390;2023-04-04T12:56:34;97579.06;;;9.76;23.61
12759;BME280;20944;47.048;15.390;2023-04-04T12:59:03;97583.50;;;9.72;23.17
12759;BME280;20944;47.048;15.390;2023-04-04T13:01:32;97586.31;;;9.64;23.75
12759;BME280;20944;47.048;15.390;2023-04-04T13:04:01;97588.84;;;9.69;23.76
12759;BME280;20944;47.048;15.390;2023-04-04T13:06:32;97585.31;;;9.70;24.42
12759;BME280;20944;47.048;15.390;2023-04-04T13:09:00;97580.94;;;9.70;23.93
12759;BME280;20944;47.048;15.390;2023-04-04T13:14:56;97584.50;;;9.68;23.97
12759;BME280;20944;47.048;15.390;2023-04-04T13:17:25;97439.22;;;8.86;23.99
12759;BME280;20944;47.048;15.390;2023-04-04T13:19:54;97584.38;;;9.72;23.07
12759;BME280;20944;47.048;15.390;2023-04-04T13:22:33;97572.66;;;9.87;23.48
12759;BME280;20944;47.048;15.390;2023-04-04T13:25:01;97566.81;;;10.10;23.56